»·PEaware :: N318DA KSNA-KAVX

N318DA :: KSNA-KAVX

FLIGHT INFORMATION

Flight Status: Arrived
Operator: Privately registered:
United States
More flights under this callsign
Pilot: Roland T. (32460)
Aircraft: CIRRUS SR-22
(SR22)
More flights by this aircraft type
Origin: KSNA John Wayne-Orange Co
United States
Destination: KAVX Catalina
United States
More flights between these airports :: More routes between these airports
Route: SLI V21 SXC
File this flight plan on PilotEdge
Remarks:
Altitude:
(Current/Filed)
4,000ft
Speed:
(Current/Filed)
160kts
Departed: 01-Dec-20 12:31 PM
Arrived: 01-Dec-20 01:02 PM
Distance/Time
Traveled:
32nm/0:30
Distance/Time
To Go:
Arrived

Flight Plot

Page will automatically refresh every two minutes.


Map Options




Map Legend


Flown Route
Filed Route
Departure Airport
Arrival Airport
Navaid (VOR, NDB)
Fix

Horizontal Profiles

Position Reports

Time Latitude Longitude Heading Altitude Ground
Speed
01-Dec-20 12:03 0.000408 0.013975 359 3ft 0kts
01-Dec-20 12:04 33.676783 -117.870794 299 47ft 0kts
01-Dec-20 12:05 33.676783 -117.870794 299 47ft 0kts
01-Dec-20 12:06 33.676783 -117.870794 299 53ft 0kts
01-Dec-20 12:07 33.676783 -117.870794 299 53ft 0kts
01-Dec-20 12:08 33.676783 -117.870794 299 53ft 0kts
01-Dec-20 12:09 33.676783 -117.870794 299 53ft 0kts
01-Dec-20 12:10 33.676783 -117.870794 299 53ft 0kts
01-Dec-20 12:11 33.676783 -117.870794 299 53ft 0kts
01-Dec-20 12:12 33.676783 -117.870794 299 53ft 0kts
01-Dec-20 12:13 33.676783 -117.870794 299 53ft 0kts
01-Dec-20 12:14 33.676783 -117.870794 299 53ft 0kts
01-Dec-20 12:15 33.676783 -117.870794 299 53ft 0kts
01-Dec-20 12:16 33.676783 -117.870794 299 53ft 0kts
01-Dec-20 12:17 33.676783 -117.870794 299 53ft 0kts
01-Dec-20 12:18 33.676783 -117.870794 299 53ft 0kts
01-Dec-20 12:19 33.676783 -117.870794 299 53ft 0kts
01-Dec-20 12:20 33.676761 -117.870912 247 53ft 0kts
01-Dec-20 12:21 33.676758 -117.870920 255 53ft 0kts
01-Dec-20 12:22 33.676758 -117.870920 255 53ft 0kts
01-Dec-20 12:23 33.676632 -117.870459 187 53ft 0kts
01-Dec-20 12:24 33.676622 -117.870459 180 53ft 2kts
01-Dec-20 12:25 33.679066 -117.868192 22 49ft 21kts
01-Dec-20 12:26 33.681211 -117.866500 113 43ft 0kts
01-Dec-20 12:27 33.681211 -117.866500 113 43ft 0kts
01-Dec-20 12:28 33.681211 -117.866500 113 43ft 0kts
01-Dec-20 12:29 33.681177 -117.866408 115 43ft 6kts
01-Dec-20 12:30 33.669615 -117.872614 206 408ft 71kts
01-Dec-20 12:31 33.653733 -117.895768 232 1372ft 99kts
01-Dec-20 12:32 33.636733 -117.921769 232 2601ft 101kts
01-Dec-20 12:33 33.619393 -117.948587 232 3759ft 102kts
01-Dec-20 12:34 33.599952 -117.984692 238 3995ft 154kts
01-Dec-20 12:35 33.576694 -118.029970 238 3998ft 162kts
01-Dec-20 12:36 33.552964 -118.076082 238 3998ft 163kts
01-Dec-20 12:37 33.529095 -118.122405 238 3998ft 163kts
01-Dec-20 12:38 33.505226 -118.168694 238 3998ft 163kts
01-Dec-20 12:39 33.481429 -118.214767 238 3998ft 163kts
01-Dec-20 12:40 33.457484 -118.261049 238 3998ft 163kts
01-Dec-20 12:41 33.434046 -118.306281 238 3998ft 163kts
01-Dec-20 12:42 33.410884 -118.350949 239 3993ft 134kts
01-Dec-20 12:43 33.393902 -118.383647 238 3990ft 109kts
01-Dec-20 12:44 33.377456 -118.415271 238 3991ft 113kts
01-Dec-20 12:45 33.390682 -118.422955 28 3997ft 116kts
01-Dec-20 12:47 33.420587 -118.409528 0 3994ft 115kts
01-Dec-20 12:48 33.452724 -118.409192 0 3995ft 115kts
01-Dec-20 12:49 33.484833 -118.405515 6 3995ft 116kts
01-Dec-20 12:50 33.513046 -118.417735 319 3995ft 114kts
01-Dec-20 12:51 33.531983 -118.409775 121 3997ft 116kts
01-Dec-20 12:52 33.504953 -118.404833 187 3927ft 93kts
01-Dec-20 12:53 33.482430 -118.408008 186 3385ft 78kts
01-Dec-20 12:54 33.452190 -118.412285 188 2931ft 132kts
01-Dec-20 12:55 33.416427 -118.417732 191 2297ft 99kts
01-Dec-20 12:56 33.400395 -118.438298 204 2292ft 108kts
01-Dec-20 12:57 33.392874 -118.411992 56 2301ft 123kts
01-Dec-20 12:58 33.415841 -118.402921 272 2061ft 99kts
01-Dec-20 12:59 33.413002 -118.425278 219 2476ft 77kts
01-Dec-20 13:00 33.400706 -118.458343 196 2293ft 129kts
01-Dec-20 13:01 33.397082 -118.429333 55 2220ft 103kts
01-Dec-20 13:02 33.407413 -118.411748 61 1552ft 12kts
01-Dec-20 13:03 33.407201 -118.411398 216 1552ft 0kts
01-Dec-20 13:04 33.406154 -118.413102 236 1563ft 10kts
01-Dec-20 13:04 33.404687 -118.415018 154 1574ft 1kts

Navigation Log

Ident Type
Flight plan parsing failed, navigation log unavailable